createdAt,value
2023-01-09T00:00:35.711Z,30.40
2023-01-09T00:03:24.305Z,30.05
2023-01-09T00:05:53.138Z,31.00
2023-01-09T00:08:21.774Z,30.60
2023-01-09T00:10:50.726Z,29.83
2023-01-09T00:13:19.393Z,29.67
2023-01-09T00:15:49.089Z,30.42
2023-01-09T00:18:18.113Z,29.15
2023-01-09T00:20:46.351Z,29.25
2023-01-09T00:23:14.981Z,29.15
2023-01-09T00:25:43.229Z,29.52
2023-01-09T00:28:12.505Z,30.80
2023-01-09T00:31:06.600Z,30.85
2023-01-09T00:33:39.526Z,30.30
2023-01-09T00:36:08.203Z,31.25
2023-01-09T00:39:01.924Z,31.80
2023-01-09T00:41:46.200Z,31.80
2023-01-09T00:44:26.471Z,31.92
2023-01-09T00:47:20.110Z,30.23
2023-01-09T00:50:22.271Z,31.52
2023-01-09T00:53:12.724Z,31.23
2023-01-09T00:55:41.673Z,31.13
2023-01-09T00:58:19.973Z,30.65
2023-01-09T01:00:48.766Z,31.58
2023-01-09T01:03:17.291Z,30.80
2023-01-09T01:06:32.593Z,30.55
2023-01-09T01:09:00.908Z,31.48
2023-01-09T01:11:29.739Z,31.40
2023-01-09T01:14:23.026Z,32.00
2023-01-09T01:16:51.814Z,32.42
2023-01-09T01:19:20.037Z,32.80
2023-01-09T01:21:48.549Z,30.98
2023-01-09T01:24:19.921Z,31.83
2023-01-09T01:26:48.627Z,31.08
2023-01-09T01:29:16.985Z,31.00
2023-01-09T01:32:13.291Z,31.30
2023-01-09T01:34:41.777Z,30.65
2023-01-09T01:37:14.261Z,30.73
2023-01-09T01:40:09.985Z,30.23
2023-01-09T01:42:49.404Z,29.92
2023-01-09T01:45:20.315Z,30.00
2023-01-09T01:47:58.494Z,28.50
2023-01-09T01:51:00.396Z,31.60
2023-01-09T01:53:33.596Z,30.95
2023-01-09T01:57:02.243Z,29.52
2023-01-09T01:59:40.346Z,30.15
2023-01-09T02:02:10.296Z,30.75
2023-01-09T02:04:42.915Z,30.27
2023-01-09T02:07:11.633Z,30.30
2023-01-09T02:09:42.288Z,28.70
2023-01-09T02:12:26.223Z,30.48
2023-01-09T02:15:05.141Z,38.58
2023-01-09T02:18:00.672Z,29.75
2023-01-09T02:20:55.142Z,27.52
2023-01-09T02:23:29.531Z,29.63
2023-01-09T02:26:24.130Z,28.85
2023-01-09T02:29:24.952Z,29.02
2023-01-09T02:32:22.694Z,29.42
2023-01-09T02:34:56.721Z,28.50
2023-01-09T02:37:53.156Z,28.50
2023-01-09T02:40:28.061Z,28.50
2023-01-09T02:42:59.594Z,28.73
2023-01-09T02:45:28.172Z,29.48
2023-01-09T02:47:56.909Z,28.80
2023-01-09T02:50:35.829Z,29.55
2023-01-09T02:53:56.950Z,28.63
2023-01-09T02:56:54.421Z,29.42
2023-01-09T02:59:33.969Z,27.55
2023-01-09T03:02:35.697Z,28.75
2023-01-09T03:05:35.340Z,27.75
2023-01-09T03:08:31.913Z,29.35
2023-01-09T03:11:06.792Z,28.40
2023-01-09T03:13:42.201Z,29.70
2023-01-09T03:16:13.853Z,28.35
2023-01-09T03:21:11.935Z,29.42
2023-01-09T03:23:49.799Z,28.33
2023-01-09T03:26:18.711Z,28.90
2023-01-09T03:28:47.781Z,28.75
2023-01-09T03:31:16.015Z,30.02
2023-01-09T03:33:45.046Z,28.80
2023-01-09T03:36:14.722Z,27.83
2023-01-09T03:38:43.542Z,28.70
2023-01-09T03:41:23.013Z,29.08
2023-01-09T03:43:51.666Z,28.77
2023-01-09T03:46:22.754Z,29.00
2023-01-09T03:49:00.105Z,28.67
2023-01-09T03:51:28.315Z,29.27
2023-01-09T03:54:03.253Z,29.10
2023-01-09T03:56:41.620Z,29.55
2023-01-09T03:59:13.212Z,30.10
2023-01-09T04:01:41.623Z,28.83
2023-01-09T04:04:10.407Z,29.60
2023-01-09T04:06:38.670Z,29.40
2023-01-09T04:09:07.401Z,28.83
2023-01-09T04:11:35.663Z,29.10
2023-01-09T04:14:04.306Z,30.30
2023-01-09T04:16:39.160Z,28.98
2023-01-09T04:19:31.289Z,31.05
2023-01-09T04:22:03.091Z,30.75
2023-01-09T04:24:39.767Z,30.27
2023-01-09T04:27:10.589Z,30.90
2023-01-09T04:29:43.133Z,30.38
2023-01-09T04:32:11.410Z,29.38
2023-01-09T04:34:51.299Z,32.30
2023-01-09T04:37:19.899Z,30.80
2023-01-09T04:39:54.980Z,30.08
2023-01-09T04:42:24.116Z,31.85
2023-01-09T04:44:54.208Z,31.85
2023-01-09T04:48:00.769Z,31.27
2023-01-09T04:55:26.442Z,31.25
2023-01-09T04:57:55.096Z,32.20
2023-01-09T05:00:25.906Z,34.00
2023-01-09T05:02:54.626Z,37.77
2023-01-09T05:05:46.775Z,40.40
2023-01-09T05:08:19.472Z,38.97
2023-01-09T05:10:47.951Z,35.00
2023-01-09T05:13:16.586Z,33.80
2023-01-09T05:15:44.979Z,33.85
2023-01-09T05:18:13.546Z,34.92
2023-01-09T05:20:41.830Z,35.00
2023-01-09T05:23:10.461Z,34.50
2023-01-09T05:25:38.667Z,34.70
2023-01-09T05:28:07.206Z,33.60
2023-01-09T05:30:35.535Z,34.15
2023-01-09T05:33:04.138Z,34.65
2023-01-09T05:35:32.489Z,34.78
2023-01-09T05:38:01.327Z,35.22
2023-01-09T05:40:39.466Z,33.60
2023-01-09T05:43:08.919Z,37.40
2023-01-09T05:45:37.300Z,34.05
2023-01-09T05:48:06.136Z,34.97
2023-01-09T05:50:34.482Z,35.35
2023-01-09T05:53:03.288Z,35.30
2023-01-09T05:55:31.752Z,35.20
2023-01-09T05:58:00.746Z,36.00
2023-01-09T06:00:29.196Z,37.25
2023-01-09T06:02:58.151Z,38.42
2023-01-09T06:05:26.725Z,37.63
2023-01-09T06:07:55.292Z,37.25
2023-01-09T06:10:23.532Z,36.40
2023-01-09T06:12:52.641Z,36.13
2023-01-09T06:15:20.910Z,39.25
2023-01-09T06:17:49.706Z,41.17
2023-01-09T06:20:18.581Z,40.95
2023-01-09T06:22:47.419Z,39.25
2023-01-09T06:25:15.774Z,38.45
2023-01-09T06:27:44.360Z,38.80
2023-01-09T06:30:12.942Z,35.95
2023-01-09T06:32:41.539Z,37.45
2023-01-09T06:35:10.241Z,37.17
2023-01-09T06:37:38.919Z,35.20
2023-01-09T06:40:07.706Z,33.50
2023-01-09T06:42:36.380Z,34.80
2023-01-09T06:45:05.366Z,34.60
2023-01-09T06:47:34.448Z,35.22
2023-01-09T06:50:02.687Z,36.13
2023-01-09T06:52:32.577Z,34.45
2023-01-09T06:55:00.858Z,35.47
2023-01-09T06:57:29.833Z,37.08
2023-01-09T06:59:58.196Z,39.75
2023-01-09T07:02:26.828Z,41.85
2023-01-09T07:04:55.205Z,40.05
2023-01-09T07:07:24.166Z,39.33
2023-01-09T07:09:52.415Z,39.55
2023-01-09T07:12:21.074Z,39.08
2023-01-09T07:14:49.522Z,36.92
2023-01-09T07:17:18.015Z,36.50
2023-01-09T07:19:46.332Z,35.95
2023-01-09T07:22:15.124Z,35.45
2023-01-09T07:24:44.781Z,37.15
2023-01-09T07:27:13.358Z,35.92
2023-01-09T07:29:41.642Z,35.75
2023-01-09T07:32:10.412Z,36.42
2023-01-09T07:34:38.678Z,35.97
2023-01-09T07:37:08.010Z,37.92
2023-01-09T07:39:36.389Z,39.83
2023-01-09T07:42:04.960Z,40.70
2023-01-09T07:44:33.843Z,46.75
2023-01-09T07:47:02.444Z,39.25
2023-01-09T07:49:30.763Z,39.08
2023-01-09T07:51:59.382Z,38.70
2023-01-09T07:54:27.690Z,38.53
2023-01-09T07:56:56.344Z,38.85
2023-01-09T07:59:25.057Z,37.13
2023-01-09T08:01:53.940Z,39.45
2023-01-09T08:04:22.816Z,50.00
2023-01-09T08:06:51.331Z,41.80
2023-01-09T08:09:20.181Z,42.75
2023-01-09T08:11:48.729Z,35.67
2023-01-09T08:14:17.455Z,37.47
2023-01-09T08:16:45.922Z,37.17
2023-01-09T08:19:14.472Z,38.35
2023-01-09T08:21:42.697Z,37.28
2023-01-09T08:24:11.383Z,38.45
2023-01-09T08:26:39.609Z,39.92
2023-01-09T08:29:08.323Z,42.97
2023-01-09T08:31:37.006Z,41.00
2023-01-09T08:34:05.830Z,42.38
2023-01-09T08:36:41.612Z,40.30
2023-01-09T08:39:13.700Z,41.55
2023-01-09T08:42:08.196Z,41.35
2023-01-09T08:44:55.703Z,37.05
2023-01-09T08:47:24.910Z,37.80
2023-01-09T08:49:53.532Z,39.38
2023-01-09T08:52:21.784Z,41.40
2023-01-09T08:54:50.458Z,40.60
2023-01-09T08:57:18.782Z,44.28
2023-01-09T08:59:47.578Z,44.92
2023-01-09T09:02:15.921Z,42.75
2023-01-09T09:04:44.945Z,45.95
2023-01-09T09:07:14.039Z,41.35
2023-01-09T09:09:42.695Z,40.83
2023-01-09T09:12:10.957Z,40.30
2023-01-09T09:14:58.009Z,44.17
2023-01-09T09:17:26.968Z,43.45
2023-01-09T09:19:55.590Z,42.47
2023-01-09T09:22:24.052Z,43.83
2023-01-09T09:24:52.604Z,41.40
2023-01-09T09:27:20.960Z,40.15
2023-01-09T09:29:49.675Z,45.47
2023-01-09T09:32:17.967Z,44.40
2023-01-09T09:34:46.636Z,39.65
2023-01-09T09:37:15.082Z,39.65
2023-01-09T09:39:43.645Z,40.75
2023-01-09T09:42:44.838Z,40.25
2023-01-09T09:45:25.770Z,38.67
2023-01-09T09:48:18.212Z,38.97
2023-01-09T09:51:16.534Z,37.58
2023-01-09T09:54:15.228Z,36.97
2023-01-09T09:56:51.652Z,37.70
2023-01-09T09:59:35.651Z,36.90
2023-01-09T10:02:10.248Z,38.08
2023-01-09T10:04:47.189Z,36.72
2023-01-09T10:07:23.822Z,36.13
2023-01-09T10:10:05.246Z,36.20
2023-01-09T10:12:46.455Z,37.35
2023-01-09T10:15:38.728Z,38.00
2023-01-09T10:18:16.452Z,37.42
2023-01-09T10:21:02.236Z,36.53
2023-01-09T10:24:00.241Z,35.50
2023-01-09T10:26:37.489Z,34.58
2023-01-09T10:29:39.036Z,40.15
2023-01-09T10:32:44.727Z,41.38
2023-01-09T10:35:39.407Z,40.38
2023-01-09T10:38:23.227Z,40.58
2023-01-09T10:41:16.143Z,37.70
2023-01-09T10:43:52.807Z,37.92
2023-01-09T10:46:29.677Z,36.00
2023-01-09T10:49:05.364Z,34.53
2023-01-09T10:51:47.931Z,37.45
2023-01-09T10:54:20.264Z,35.70
2023-01-09T10:57:19.837Z,43.40
2023-01-09T10:59:48.181Z,37.50
2023-01-09T11:02:36.188Z,36.35
2023-01-09T11:05:05.109Z,41.47
2023-01-09T11:07:37.992Z,41.22
2023-01-09T11:13:49.368Z,41.40
2023-01-09T11:20:29.532Z,39.10
2023-01-09T11:22:59.433Z,39.30
2023-01-09T11:25:29.298Z,41.80
2023-01-09T11:28:07.405Z,41.55
2023-01-09T11:30:59.958Z,42.83
2023-01-09T11:33:38.078Z,40.92
2023-01-09T11:36:15.997Z,44.08
2023-01-09T11:39:24.015Z,43.60
2023-01-09T11:41:57.982Z,43.63
2023-01-09T11:46:56.417Z,42.65
2023-01-09T11:49:31.975Z,45.13
2023-01-09T11:52:29.289Z,48.78
2023-01-09T11:55:14.163Z,44.75
2023-01-09T12:01:27.419Z,48.35
2023-01-09T12:04:28.669Z,42.92
2023-01-09T12:07:25.178Z,48.67
2023-01-09T12:10:10.184Z,51.53
2023-01-09T12:13:07.221Z,49.97
2023-01-09T12:15:54.806Z,53.63
2023-01-09T12:18:49.718Z,52.92
2023-01-09T12:22:01.982Z,50.60
2023-01-09T12:24:42.271Z,49.10
2023-01-09T12:27:35.126Z,50.55
2023-01-09T12:30:26.279Z,50.22
2023-01-09T12:33:15.418Z,50.03
2023-01-09T12:36:07.799Z,50.75
2023-01-09T12:38:52.786Z,50.88
2023-01-09T12:41:28.019Z,54.15
2023-01-09T12:44:02.783Z,49.65
2023-01-09T12:46:45.135Z,51.97
2023-01-09T12:49:42.400Z,52.83
2023-01-09T12:52:20.614Z,53.40
2023-01-09T12:55:28.015Z,51.03
2023-01-09T12:58:00.582Z,50.70
2023-01-09T13:00:51.603Z,59.47
2023-01-09T13:03:37.337Z,57.25
2023-01-09T13:06:13.406Z,55.28
2023-01-09T13:08:49.895Z,57.92
2023-01-09T13:11:32.307Z,59.65
2023-01-09T13:14:38.918Z,49.33
2023-01-09T13:17:18.632Z,50.95
2023-01-09T13:19:46.920Z,45.92
2023-01-09T13:22:16.301Z,44.92
2023-01-09T13:25:12.175Z,43.13
2023-01-09T13:27:46.955Z,43.85
2023-01-09T13:30:45.205Z,44.03
2023-01-09T13:33:21.837Z,47.05
2023-01-09T13:35:53.238Z,49.85
2023-01-09T13:38:27.672Z,53.45
2023-01-09T13:41:36.040Z,52.88
2023-01-09T13:44:17.829Z,53.15
2023-01-09T13:46:49.088Z,55.17
2023-01-09T13:49:36.594Z,55.17
2023-01-09T13:52:07.007Z,54.03
2023-01-09T13:54:58.308Z,58.60
2023-01-09T13:57:32.783Z,53.28
2023-01-09T14:00:14.687Z,50.53
2023-01-09T14:02:49.911Z,50.65
2023-01-09T14:05:24.894Z,50.65
2023-01-09T14:08:03.041Z,51.20
2023-01-09T14:10:37.776Z,50.25
2023-01-09T14:13:16.497Z,50.17
2023-01-09T14:15:47.170Z,47.03
2023-01-09T14:18:18.788Z,52.47
2023-01-09T14:20:57.919Z,48.13
2023-01-09T14:23:52.122Z,50.53
2023-01-09T14:26:25.275Z,50.05
2023-01-09T14:29:33.850Z,54.33
2023-01-09T14:32:21.374Z,53.45
2023-01-09T14:34:57.730Z,53.00
2023-01-09T14:42:09.414Z,55.50
2023-01-09T14:48:30.260Z,56.85
2023-01-09T14:50:59.989Z,54.85
2023-01-09T14:53:37.156Z,57.00
2023-01-09T14:56:08.696Z,72.45
2023-01-09T14:58:37.650Z,80.03
2023-01-09T15:01:27.271Z,82.03
2023-01-09T15:04:04.490Z,82.78
2023-01-09T15:06:47.297Z,78.82
2023-01-09T15:12:06.548Z,92.90
2023-01-09T15:14:40.870Z,117.43
2023-01-09T15:17:27.556Z,101.22
2023-01-09T15:19:59.442Z,86.22
2023-01-09T15:22:36.411Z,80.35
2023-01-09T15:25:33.944Z,88.13
2023-01-09T15:28:27.886Z,85.95
2023-01-09T15:31:19.371Z,77.68
2023-01-09T15:33:48.826Z,79.25
2023-01-09T15:36:21.257Z,79.18
2023-01-09T15:39:00.288Z,85.30
2023-01-09T15:41:49.330Z,83.63
2023-01-09T15:44:30.352Z,71.68
2023-01-09T15:47:00.694Z,56.17
2023-01-09T15:49:29.615Z,52.70
2023-01-09T15:52:01.534Z,55.00
2023-01-09T15:54:32.773Z,51.20
2023-01-09T15:57:33.257Z,49.60
2023-01-09T16:00:56.592Z,50.22
2023-01-09T16:03:26.939Z,47.75
2023-01-09T16:06:30.831Z,48.15
2023-01-09T16:09:00.715Z,54.90
2023-01-09T16:11:35.356Z,60.13
2023-01-09T16:14:33.160Z,48.88
2023-01-09T16:17:17.049Z,58.55
2023-01-09T16:19:51.784Z,55.85
2023-01-09T16:22:34.209Z,47.00
2023-01-09T16:25:24.884Z,51.30
2023-01-09T16:28:26.980Z,46.50
2023-01-09T16:33:32.694Z,41.97
2023-01-09T16:36:03.645Z,43.58
2023-01-09T16:38:37.808Z,43.03
2023-01-09T16:41:31.318Z,47.25
2023-01-09T16:43:59.707Z,43.50
2023-01-09T16:46:28.915Z,45.08
2023-01-09T16:49:02.442Z,45.85
2023-01-09T16:51:34.534Z,45.35
2023-01-09T16:54:02.870Z,46.78
2023-01-09T16:56:31.693Z,45.60
2023-01-09T16:58:59.943Z,45.50
2023-01-09T17:01:29.233Z,46.40
2023-01-09T17:03:57.656Z,43.75
2023-01-09T17:06:32.361Z,51.45
2023-01-09T17:09:00.666Z,44.38
2023-01-09T17:11:32.636Z,47.47
2023-01-09T17:14:07.850Z,45.80
2023-01-09T17:16:36.903Z,46.13
2023-01-09T17:19:07.547Z,45.80
2023-01-09T17:21:41.157Z,45.45
2023-01-09T17:24:27.906Z,45.47
2023-01-09T17:27:15.605Z,45.90
2023-01-09T17:29:44.735Z,45.38
2023-01-09T17:32:20.252Z,44.72
2023-01-09T17:34:55.272Z,46.90
2023-01-09T17:37:23.878Z,48.00
2023-01-09T17:39:52.385Z,47.58
2023-01-09T17:42:23.951Z,48.45
2023-01-09T17:44:56.719Z,52.78
2023-01-09T17:47:28.885Z,48.47
2023-01-09T17:49:57.060Z,50.72
2023-01-09T17:52:28.729Z,46.45
2023-01-09T17:55:36.394Z,48.15
2023-01-09T18:01:27.621Z,41.67
2023-01-09T18:03:58.383Z,43.03
2023-01-09T18:06:26.687Z,42.78
2023-01-09T18:09:11.303Z,42.13
2023-01-09T18:11:47.752Z,48.38
2023-01-09T18:14:28.587Z,44.38
2023-01-09T18:17:03.358Z,42.75
2023-01-09T18:19:34.825Z,43.83
2023-01-09T18:22:06.063Z,46.50
2023-01-09T18:24:35.019Z,45.75
2023-01-09T18:27:05.357Z,44.03
2023-01-09T18:29:37.019Z,42.15
2023-01-09T18:32:32.332Z,42.67
2023-01-09T18:35:25.011Z,42.95
2023-01-09T18:37:56.575Z,42.72
2023-01-09T18:40:29.404Z,43.92
2023-01-09T18:43:00.889Z,41.30
2023-01-09T18:45:38.999Z,43.67
2023-01-09T18:48:08.013Z,45.65
2023-01-09T18:50:46.289Z,42.75
2023-01-09T18:53:20.376Z,43.40
2023-01-09T18:55:50.638Z,43.80
2023-01-09T18:58:18.965Z,43.13
2023-01-09T19:01:14.703Z,42.58
2023-01-09T19:04:05.602Z,43.42
2023-01-09T19:07:01.853Z,41.80
2023-01-09T19:09:33.621Z,40.90
2023-01-09T19:12:19.905Z,45.30
2023-01-09T19:15:13.584Z,40.53
2023-01-09T19:17:42.572Z,43.80
2023-01-09T19:20:17.240Z,43.90
2023-01-09T19:22:51.911Z,41.55
2023-01-09T19:25:20.300Z,40.10
2023-01-09T19:28:00.541Z,39.10
2023-01-09T19:30:53.503Z,40.20
2023-01-09T19:33:27.013Z,41.70
2023-01-09T19:37:02.732Z,42.97
2023-01-09T19:40:11.475Z,43.92
2023-01-09T19:43:40.496Z,41.17
2023-01-09T19:46:19.576Z,38.17
2023-01-09T19:48:51.209Z,39.33
2023-01-09T19:51:38.619Z,39.33
2023-01-09T19:54:19.912Z,39.15
2023-01-09T19:56:53.267Z,41.08
2023-01-09T19:59:40.096Z,41.15
2023-01-09T20:02:29.151Z,37.55
2023-01-09T20:05:13.283Z,37.28
2023-01-09T20:07:44.024Z,38.15
2023-01-09T20:10:19.728Z,41.10
2023-01-09T20:13:00.937Z,38.33
2023-01-09T20:15:44.815Z,35.47
2023-01-09T20:18:23.411Z,38.88
2023-01-09T20:20:59.540Z,35.88
2023-01-09T20:24:00.338Z,39.97
2023-01-09T20:26:32.872Z,37.58
2023-01-09T20:29:02.305Z,39.25
2023-01-09T20:32:24.408Z,38.05
2023-01-09T20:35:04.062Z,37.45
2023-01-09T20:37:39.506Z,36.97
2023-01-09T20:40:10.206Z,37.08
2023-01-09T20:43:00.589Z,35.42
2023-01-09T20:46:03.456Z,36.67
2023-01-09T20:48:58.372Z,37.70
2023-01-09T20:51:31.318Z,36.70
2023-01-09T20:53:59.970Z,33.17
2023-01-09T20:56:30.767Z,33.20
2023-01-09T20:59:00.794Z,34.47
2023-01-09T21:01:29.851Z,36.25
2023-01-09T21:03:58.990Z,40.63
2023-01-09T21:06:33.467Z,38.05
2023-01-09T21:09:02.734Z,33.88
2023-01-09T21:11:35.636Z,35.65
2023-01-09T21:14:31.996Z,37.63
2023-01-09T21:17:05.666Z,32.85
2023-01-09T21:19:34.078Z,34.90
2023-01-09T21:22:12.554Z,33.13
2023-01-09T21:24:44.252Z,32.60
2023-01-09T21:28:24.381Z,32.05
2023-01-09T21:30:58.622Z,35.58
2023-01-09T21:33:30.354Z,40.42
2023-01-09T21:36:03.677Z,37.38
2023-01-09T21:38:38.328Z,39.67
2023-01-09T21:41:50.167Z,41.05
2023-01-09T21:45:08.592Z,31.55
2023-01-09T21:51:50.487Z,30.38
2023-01-09T21:54:20.818Z,33.38
2023-01-09T21:57:14.447Z,34.78
2023-01-09T21:59:43.371Z,32.42
2023-01-09T22:02:16.903Z,32.97
2023-01-09T22:04:49.143Z,31.77
2023-01-09T22:07:42.342Z,32.30
2023-01-09T22:10:17.798Z,33.25
2023-01-09T22:13:10.656Z,33.67
2023-01-09T22:16:34.114Z,32.72
2023-01-09T22:19:04.938Z,33.45
2023-01-09T22:21:38.367Z,32.67
2023-01-09T22:24:28.335Z,34.95
2023-01-09T22:26:58.332Z,32.65
2023-01-09T22:29:26.836Z,32.10
2023-01-09T22:31:55.793Z,32.15
2023-01-09T22:34:24.112Z,31.83
2023-01-09T22:36:52.774Z,31.70
2023-01-09T22:39:21.411Z,31.15
2023-01-09T22:41:52.704Z,32.25
2023-01-09T22:44:53.633Z,32.63
2023-01-09T22:47:23.343Z,31.55
2023-01-09T22:49:53.356Z,32.33
2023-01-09T22:52:22.889Z,30.70
2023-01-09T22:54:51.191Z,30.23
2023-01-09T22:57:19.705Z,30.83
2023-01-09T22:59:47.956Z,29.75
2023-01-09T23:02:16.680Z,30.92
2023-01-09T23:04:46.782Z,29.42
2023-01-09T23:07:15.605Z,29.92
2023-01-09T23:09:44.015Z,30.27
2023-01-09T23:12:12.733Z,31.00
2023-01-09T23:14:41.240Z,30.55
2023-01-09T23:17:11.388Z,29.77
2023-01-09T23:19:40.737Z,29.88
2023-01-09T23:22:09.362Z,29.88
2023-01-09T23:24:37.901Z,30.80
2023-01-09T23:27:07.818Z,31.13
2023-01-09T23:29:38.655Z,31.25
2023-01-09T23:32:09.838Z,32.92
2023-01-09T23:34:38.446Z,31.67
2023-01-09T23:37:09.250Z,29.52
2023-01-09T23:39:37.724Z,30.23
2023-01-09T23:42:24.888Z,28.40
2023-01-09T23:44:53.162Z,27.98
2023-01-09T23:47:22.834Z,28.55
2023-01-09T23:49:51.222Z,29.80
2023-01-09T23:52:19.867Z,28.95
2023-01-09T23:54:48.094Z,29.02
2023-01-09T23:57:16.692Z,29.63
2023-01-09T23:59:45.229Z,27.48
